PWSweather.com
Personal Weather Stations
Station Observations
KAZSIERR7
Canyon De Flores, Sierra Vista, AZ 85650

Canyon De FloresSierra Vista, AZ 85650

Lat: 31.5, Lon: -110.26

Elevation: 4645

Station Type: LaCrosse WS-3610 & Boltek Lightning Detector

http://www.lightningring.com/weather/

High Low Average
Temperature 82.7°F28.2°C 45.8°F7.7°C 66.3°F19.1°C
Dew Point 25.5°F-3.6°C 0.4°F-17.6°C 15.5°F-9.2°C
Winds 7.6 mph 12.2 kmh Calm Calm 2.0 mph WSW3.2 kmh WSW
Wind Gusts 66.2 mph106.5 kmh -- 11.0 mph17.7 kmh
Humidity 38% 4% 18%
Pressure 30.08 in1018.6 mb 29.98 in1015.2 mb -
Precipitation 0.00 in0.0 mm - -
Hour Temp Dew Point Humidity Winds Wind Gusts Pressure Precip Precip Rate Daily Precip Total
12:03 AM 56.2°F13.4°C 17.7°F-7.9°C 22% Calm Calm -- 30.05 in1017.6 mb 0.00 in0.0 mm 0.00 in/hr0.0 mm/hr 0.00 in0.0 mm
12:13 AM 55.9°F13.3°C 17.5°F-8.1°C 22% Calm Calm -- 30.05 in1017.6 mb 0.00 in0.0 mm 0.00 in/hr0.0 mm/hr 0.00 in0.0 mm
12:24 AM 55.3°F12.9°C 19.0°F-7.2°C 24% Calm Calm -- 30.05 in1017.6 mb 0.00 in0.0 mm 0.00 in/hr0.0 mm/hr 0.00 in0.0 mm
12:34 AM 56.1°F13.4°C 19.6°F-6.9°C 24% Calm Calm -- 30.05 in1017.6 mb 0.00 in0.0 mm 0.00 in/hr0.0 mm/hr 0.00 in0.0 mm
12:45 AM 55.0°F12.8°C 19.6°F-6.9°C 25% Calm Calm -- 30.05 in1017.6 mb 0.00 in0.0 mm 0.00 in/hr0.0 mm/hr 0.00 in0.0 mm
12:55 AM 54.1°F12.3°C 18.9°F-7.3°C 25% Calm Calm -- 30.04 in1017.3 mb 0.00 in0.0 mm 0.00 in/hr0.0 mm/hr 0.00 in0.0 mm
01:06 AM 52.8°F11.6°C 19.5°F-6.9°C 27% Calm Calm -- 30.04 in1017.3 mb 0.00 in0.0 mm 0.00 in/hr0.0 mm/hr 0.00 in0.0 mm
01:16 AM 51.9°F11.1°C 19.6°F-6.9°C 28% Calm Calm -- 30.05 in1017.6 mb 0.00 in0.0 mm 0.00 in/hr0.0 mm/hr 0.00 in0.0 mm
01:27 AM 51.4°F10.8°C 19.2°F-7.1°C 28% Calm Calm -- 30.04 in1017.3 mb 0.00 in0.0 mm 0.00 in/hr0.0 mm/hr 0.00 in0.0 mm
01:37 AM 50.7°F10.4°C 19.4°F-7.0°C 29% Calm Calm -- 30.04 in1017.3 mb 0.00 in0.0 mm 0.00 in/hr0.0 mm/hr 0.00 in0.0 mm
01:48 AM 50.1°F10.1°C 19.6°F-6.9°C 30% Calm Calm -- 30.04 in1017.3 mb 0.00 in0.0 mm 0.00 in/hr0.0 mm/hr 0.00 in0.0 mm
01:58 AM 50.5°F10.3°C 20.0°F-6.7°C 30% Calm Calm -- 30.05 in1017.6 mb 0.00 in0.0 mm 0.00 in/hr0.0 mm/hr 0.00 in0.0 mm
02:09 AM 51.2°F10.7°C 20.6°F-6.3°C 30% Calm Calm -- 30.05 in1017.6 mb 0.00 in0.0 mm 0.00 in/hr0.0 mm/hr 0.00 in0.0 mm
02:20 AM 51.4°F10.8°C 20.0°F-6.7°C 29% Calm Calm -- 30.05 in1017.6 mb 0.00 in0.0 mm 0.00 in/hr0.0 mm/hr 0.00 in0.0 mm
02:31 AM 50.7°F10.4°C 19.4°F-7.0°C 29% Calm Calm -- 30.05 in1017.6 mb 0.00 in0.0 mm 0.00 in/hr0.0 mm/hr 0.00 in0.0 mm
02:41 AM 49.9°F9.9°C 19.5°F-6.9°C 30% Calm Calm -- 30.05 in1017.6 mb 0.00 in0.0 mm 0.00 in/hr0.0 mm/hr 0.00 in0.0 mm
02:52 AM 49.2°F9.6°C 18.8°F-7.3°C 30% Calm Calm -- 30.05 in1017.6 mb 0.00 in0.0 mm 0.00 in/hr0.0 mm/hr 0.00 in0.0 mm
03:02 AM 48.9°F9.4°C 18.6°F-7.4°C 30% Calm Calm -- 30.05 in1017.6 mb 0.00 in0.0 mm 0.00 in/hr0.0 mm/hr 0.00 in0.0 mm
03:13 AM 48.3°F9.1°C 19.6°F-6.9°C 32% Calm Calm -- 30.04 in1017.3 mb 0.00 in0.0 mm 0.00 in/hr0.0 mm/hr 0.00 in0.0 mm
03:23 AM 47.8°F8.8°C 19.1°F-7.2°C 32% Calm Calm -- 30.04 in1017.3 mb 0.00 in0.0 mm 0.00 in/hr0.0 mm/hr 0.00 in0.0 mm
03:34 AM 49.2°F9.6°C 20.3°F-6.5°C 32% Calm Calm -- 30.04 in1017.3 mb 0.00 in0.0 mm 0.00 in/hr0.0 mm/hr 0.00 in0.0 mm
03:44 AM 49.9°F9.9°C 20.2°F-6.6°C 31% Calm Calm -- 30.04 in1017.3 mb 0.00 in0.0 mm 0.00 in/hr0.0 mm/hr 0.00 in0.0 mm
03:55 AM 50.3°F10.2°C 19.8°F-6.8°C 30% Calm Calm -- 30.05 in1017.6 mb 0.00 in0.0 mm 0.00 in/hr0.0 mm/hr 0.00 in0.0 mm
04:05 AM 49.2°F9.6°C 20.3°F-6.5°C 32% Calm Calm -- 30.05 in1017.6 mb 0.00 in0.0 mm 0.00 in/hr0.0 mm/hr 0.00 in0.0 mm
04:16 AM 49.9°F9.9°C 20.2°F-6.6°C 31% Calm Calm -- 30.05 in1017.6 mb 0.00 in0.0 mm 0.00 in/hr0.0 mm/hr 0.00 in0.0 mm
04:26 AM 49.0°F9.4°C 20.9°F-6.2°C 33% Calm Calm -- 30.05 in1017.6 mb 0.00 in0.0 mm 0.00 in/hr0.0 mm/hr 0.00 in0.0 mm
04:37 AM 49.4°F9.7°C 20.5°F-6.4°C 32% Calm Calm -- 30.05 in1017.6 mb 0.00 in0.0 mm 0.00 in/hr0.0 mm/hr 0.00 in0.0 mm
04:47 AM 49.2°F9.6°C 20.3°F-6.5°C 32% Calm Calm -- 30.05 in1017.6 mb 0.00 in0.0 mm 0.00 in/hr0.0 mm/hr 0.00 in0.0 mm
04:58 AM 49.6°F9.8°C 19.2°F-7.1°C 30% Calm Calm -- 30.05 in1017.6 mb 0.00 in0.0 mm 0.00 in/hr0.0 mm/hr 0.00 in0.0 mm
05:08 AM 48.7°F9.3°C 20.6°F-6.3°C 33% Calm Calm -- 30.05 in1017.6 mb 0.00 in0.0 mm 0.00 in/hr0.0 mm/hr 0.00 in0.0 mm
05:18 AM 47.4°F8.6°C 20.2°F-6.6°C 34% Calm Calm -- 30.05 in1017.6 mb 0.00 in0.0 mm 0.00 in/hr0.0 mm/hr 0.00 in0.0 mm
05:29 AM 46.3°F7.9°C 19.9°F-6.7°C 35% Calm Calm -- 30.05 in1017.6 mb 0.00 in0.0 mm 0.00 in/hr0.0 mm/hr 0.00 in0.0 mm
05:39 AM 46.5°F8.1°C 20.1°F-6.6°C 35% Calm Calm -- 30.06 in1017.9 mb 0.00 in0.0 mm 0.00 in/hr0.0 mm/hr 0.00 in0.0 mm
05:50 AM 45.8°F7.7°C 20.1°F-6.6°C 36% Calm Calm -- 30.06 in1017.9 mb 0.00 in0.0 mm 0.00 in/hr0.0 mm/hr 0.00 in0.0 mm
06:00 AM 45.8°F7.7°C 21.4°F-5.9°C 38% Calm Calm -- 30.06 in1017.9 mb 0.00 in0.0 mm 0.00 in/hr0.0 mm/hr 0.00 in0.0 mm
06:11 AM 48.1°F8.9°C 21.5°F-5.8°C 35% Calm Calm -- 30.06 in1017.9 mb 0.00 in0.0 mm 0.00 in/hr0.0 mm/hr 0.00 in0.0 mm
06:21 AM 48.3°F9.1°C 21.0°F-6.1°C 34% Calm Calm -- 30.07 in1018.3 mb 0.00 in0.0 mm 0.00 in/hr0.0 mm/hr 0.00 in0.0 mm
06:32 AM 48.5°F9.2°C 21.2°F-6.0°C 34% Calm Calm -- 30.07 in1018.3 mb 0.00 in0.0 mm 0.00 in/hr0.0 mm/hr 0.00 in0.0 mm
06:42 AM 51.6°F10.9°C 20.9°F-6.2°C 30% Calm Calm -- 30.07 in1018.3 mb 0.00 in0.0 mm 0.00 in/hr0.0 mm/hr 0.00 in0.0 mm
06:53 AM 55.2°F12.9°C 20.7°F-6.3°C 26% Calm Calm -- 30.07 in1018.3 mb 0.00 in0.0 mm 0.00 in/hr0.0 mm/hr 0.00 in0.0 mm
07:03 AM 60.6°F15.9°C 21.5°F-5.8°C 22% Calm Calm -- 30.07 in1018.3 mb 0.00 in0.0 mm 0.00 in/hr0.0 mm/hr 0.00 in0.0 mm
07:14 AM 63.2°F17.3°C 21.3°F-5.9°C 20% Calm Calm -- 30.08 in1018.6 mb 0.00 in0.0 mm 0.00 in/hr0.0 mm/hr 0.00 in0.0 mm
07:24 AM 66.6°F19.2°C 23.0°F-5.0°C 19% Calm Calm -- 30.08 in1018.6 mb 0.00 in0.0 mm 0.00 in/hr0.0 mm/hr 0.00 in0.0 mm
07:35 AM 70.9°F21.6°C 23.8°F-4.6°C 17% Calm Calm -- 30.08 in1018.6 mb 0.00 in0.0 mm 0.00 in/hr0.0 mm/hr 0.00 in0.0 mm
07:45 AM 76.7°F24.8°C 25.5°F-3.6°C 15% Calm Calm -- 30.07 in1018.3 mb 0.00 in0.0 mm 0.00 in/hr0.0 mm/hr 0.00 in0.0 mm
07:56 AM 77.4°F25.2°C 24.4°F-4.2°C 14% Calm Calm -- 30.08 in1018.6 mb 0.00 in0.0 mm 0.00 in/hr0.0 mm/hr 0.00 in0.0 mm
08:07 AM 80.6°F27.0°C 25.1°F-3.8°C 13% Calm Calm -- 30.08 in1018.6 mb 0.00 in0.0 mm 0.00 in/hr0.0 mm/hr 0.00 in0.0 mm
08:18 AM 81.4°F27.4°C 21.6°F-5.8°C 11% Calm Calm -- 30.08 in1018.6 mb 0.00 in0.0 mm 0.00 in/hr0.0 mm/hr 0.00 in0.0 mm
08:28 AM 79.9°F26.6°C 20.4°F-6.4°C 11% Calm Calm -- 30.08 in1018.6 mb 0.00 in0.0 mm 0.00 in/hr0.0 mm/hr 0.00 in0.0 mm
08:39 AM 74.5°F23.6°C 18.4°F-7.6°C 12% 2.3 mph SSE3.7 kmh SSE 3.0 mph4.8 kmh 30.08 in1018.6 mb 0.00 in0.0 mm 0.00 in/hr0.0 mm/hr 0.00 in0.0 mm
08:50 AM 71.8°F22.1°C 21.6°F-5.8°C 15% Calm Calm 3.0 mph4.8 kmh 30.08 in1018.6 mb 0.00 in0.0 mm 0.00 in/hr0.0 mm/hr 0.00 in0.0 mm
09:00 AM 72.4°F22.4°C 20.4°F-6.4°C 14% Calm Calm 7.6 mph12.2 kmh 30.08 in1018.6 mb 0.00 in0.0 mm 0.00 in/hr0.0 mm/hr 0.00 in0.0 mm
09:11 AM 72.6°F22.6°C 22.2°F-5.4°C 15% Calm Calm 2.2 mph3.5 kmh 30.08 in1018.6 mb 0.00 in0.0 mm 0.00 in/hr0.0 mm/hr 0.00 in0.0 mm
09:21 AM 71.8°F22.1°C 21.6°F-5.8°C 15% 3.0 mph SE4.8 kmh SE 4.0 mph6.4 kmh 30.07 in1018.3 mb 0.00 in0.0 mm 0.00 in/hr0.0 mm/hr 0.00 in0.0 mm
09:32 AM 71.0°F21.7°C 19.3°F-7.1°C 14% 3.1 mph SSE5.0 kmh SSE 6.6 mph10.6 kmh 30.08 in1018.6 mb 0.00 in0.0 mm 0.00 in/hr0.0 mm/hr 0.00 in0.0 mm
09:42 AM 72.0°F22.2°C 21.7°F-5.7°C 15% 3.3 mph SSE5.3 kmh SSE 4.4 mph7.1 kmh 30.08 in1018.6 mb 0.00 in0.0 mm 0.00 in/hr0.0 mm/hr 0.00 in0.0 mm
09:53 AM 72.8°F22.7°C 20.7°F-6.3°C 14% Calm Calm 1.6 mph2.6 kmh 30.08 in1018.6 mb 0.00 in0.0 mm 0.00 in/hr0.0 mm/hr 0.00 in0.0 mm
10:03 AM 73.3°F22.9°C 17.4°F-8.1°C 12% 0.3 mph ESE0.5 kmh ESE 6.6 mph10.6 kmh 30.08 in1018.6 mb 0.00 in0.0 mm 0.00 in/hr0.0 mm/hr 0.00 in0.0 mm
10:14 AM 75.0°F23.9°C 18.7°F-7.4°C 12% 1.3 mph E2.1 kmh E 2.2 mph3.5 kmh 30.08 in1018.6 mb 0.00 in0.0 mm 0.00 in/hr0.0 mm/hr 0.00 in0.0 mm
10:24 AM 77.4°F25.2°C 16.2°F-8.8°C 10% 1.7 mph SE2.7 kmh SE 2.2 mph3.5 kmh 30.08 in1018.6 mb 0.00 in0.0 mm 0.00 in/hr0.0 mm/hr 0.00 in0.0 mm
10:35 AM 74.8°F23.8°C 18.6°F-7.4°C 12% 3.3 mph SE5.3 kmh SE 28.0 mph45.1 kmh 30.08 in1018.6 mb 0.00 in0.0 mm 0.00 in/hr0.0 mm/hr 0.00 in0.0 mm
10:45 AM 75.6°F24.2°C 14.9°F-9.5°C 10% 1.2 mph ESE1.9 kmh ESE 9.8 mph15.8 kmh 30.07 in1018.3 mb 0.00 in0.0 mm 0.00 in/hr0.0 mm/hr 0.00 in0.0 mm
10:56 AM 76.1°F24.5°C 12.8°F-10.7°C 9% 3.9 mph SE6.3 kmh SE 7.0 mph11.3 kmh 30.07 in1018.3 mb 0.00 in0.0 mm 0.00 in/hr0.0 mm/hr 0.00 in0.0 mm
11:06 AM 76.3°F24.6°C 12.9°F-10.6°C 9% 4.9 mph ESE7.9 kmh ESE 7.6 mph12.2 kmh 30.07 in1018.3 mb 0.00 in0.0 mm 0.00 in/hr0.0 mm/hr 0.00 in0.0 mm
11:17 AM 78.7°F25.9°C 12.1°F-11.1°C 8% 1.2 mph WNW1.9 kmh WNW 5.8 mph9.3 kmh 30.06 in1017.9 mb 0.00 in0.0 mm 0.00 in/hr0.0 mm/hr 0.00 in0.0 mm
11:27 AM 82.4°F28.0°C 1.1°F-17.2°C 4% 7.3 mph SE11.7 kmh SE 9.8 mph15.8 kmh 30.06 in1017.9 mb 0.00 in0.0 mm 0.00 in/hr0.0 mm/hr 0.00 in0.0 mm
11:37 AM 79.9°F26.6°C 3.2°F-16.0°C 5% 7.4 mph NW11.9 kmh NW 29.4 mph47.3 kmh 30.05 in1017.6 mb 0.00 in0.0 mm 0.00 in/hr0.0 mm/hr 0.00 in0.0 mm
11:48 AM 80.9°F27.2°C 7.5°F-13.6°C 6% 5.2 mph W8.4 kmh W 56.2 mph90.4 kmh 30.04 in1017.3 mb 0.00 in0.0 mm 0.00 in/hr0.0 mm/hr 0.00 in0.0 mm
11:59 AM 81.7°F27.6°C 4.5°F-15.3°C 5% 1.7 mph SW2.7 kmh SW 6.6 mph10.6 kmh 30.05 in1017.6 mb 0.00 in0.0 mm 0.00 in/hr0.0 mm/hr 0.00 in0.0 mm
12:09 PM 81.5°F27.5°C 4.4°F-15.3°C 5% Calm Calm 3.0 mph4.8 kmh 30.04 in1017.3 mb 0.00 in0.0 mm 0.00 in/hr0.0 mm/hr 0.00 in0.0 mm
12:20 PM 82.2°F27.9°C 8.4°F-13.1°C 6% Calm Calm 50.4 mph81.1 kmh 30.04 in1017.3 mb 0.00 in0.0 mm 0.00 in/hr0.0 mm/hr 0.00 in0.0 mm
12:30 PM 82.5°F28.1°C 5.1°F-14.9°C 5% 4.2 mph WSW6.8 kmh WSW 25.8 mph41.5 kmh 30.04 in1017.3 mb 0.00 in0.0 mm 0.00 in/hr0.0 mm/hr 0.00 in0.0 mm
12:41 PM 82.7°F28.2°C 5.2°F-14.9°C 5% 3.9 mph NW6.3 kmh NW 5.2 mph8.4 kmh 30.03 in1016.9 mb 0.00 in0.0 mm 0.00 in/hr0.0 mm/hr 0.00 in0.0 mm
12:51 PM 81.6°F27.6°C 8.0°F-13.3°C 6% 2.4 mph WNW3.9 kmh WNW 8.0 mph12.9 kmh 30.03 in1016.9 mb 0.00 in0.0 mm 0.00 in/hr0.0 mm/hr 0.00 in0.0 mm
01:02 PM 79.8°F26.6°C 3.2°F-16.0°C 5% 2.2 mph NW3.5 kmh NW 49.2 mph79.2 kmh 30.03 in1016.9 mb 0.00 in0.0 mm 0.00 in/hr0.0 mm/hr 0.00 in0.0 mm
01:12 PM 80.7°F27.1°C 7.4°F-13.7°C 6% 3.6 mph WNW5.8 kmh WNW 5.8 mph9.3 kmh 30.02 in1016.6 mb 0.00 in0.0 mm 0.00 in/hr0.0 mm/hr 0.00 in0.0 mm
01:23 PM 81.9°F27.7°C 8.2°F-13.2°C 6% 6.9 mph W11.1 kmh W 66.2 mph106.5 kmh 30.02 in1016.6 mb 0.00 in0.0 mm 0.00 in/hr0.0 mm/hr 0.00 in0.0 mm
01:33 PM 80.7°F27.1°C 7.4°F-13.7°C 6% 5.1 mph WNW8.2 kmh WNW 39.8 mph64.1 kmh 30.02 in1016.6 mb 0.00 in0.0 mm 0.00 in/hr0.0 mm/hr 0.00 in0.0 mm
01:44 PM 81.1°F27.3°C 7.6°F-13.6°C 6% 5.4 mph W8.7 kmh W 42.4 mph68.2 kmh 30.01 in1016.3 mb 0.00 in0.0 mm 0.00 in/hr0.0 mm/hr 0.00 in0.0 mm
01:54 PM 81.7°F27.6°C 8.1°F-13.3°C 6% 3.3 mph WSW5.3 kmh WSW 56.8 mph91.4 kmh 30.01 in1016.3 mb 0.00 in0.0 mm 0.00 in/hr0.0 mm/hr 0.00 in0.0 mm
02:05 PM 82.3°F27.9°C 4.9°F-15.1°C 5% 3.2 mph NW5.1 kmh NW 6.2 mph10.0 kmh 30.01 in1016.3 mb 0.00 in0.0 mm 0.00 in/hr0.0 mm/hr 0.00 in0.0 mm
02:15 PM 81.4°F27.4°C 0.4°F-17.6°C 4% 6.1 mph W9.8 kmh W 55.4 mph89.2 kmh 30.00 in1015.9 mb 0.00 in0.0 mm 0.00 in/hr0.0 mm/hr 0.00 in0.0 mm
02:26 PM 81.3°F27.4°C 4.2°F-15.4°C 5% 1.7 mph NNW2.7 kmh NNW 49.2 mph79.2 kmh 30.00 in1015.9 mb 0.00 in0.0 mm 0.00 in/hr0.0 mm/hr 0.00 in0.0 mm
02:36 PM 81.1°F27.3°C 7.6°F-13.6°C 6% 5.8 mph W9.3 kmh W 48.6 mph78.2 kmh 30.00 in1015.9 mb 0.00 in0.0 mm 0.00 in/hr0.0 mm/hr 0.00 in0.0 mm
02:47 PM 81.8°F27.7°C 4.6°F-15.2°C 5% 4.4 mph W7.1 kmh W 59.4 mph95.6 kmh 29.99 in1015.6 mb 0.00 in0.0 mm 0.00 in/hr0.0 mm/hr 0.00 in0.0 mm
02:57 PM 81.9°F27.7°C 4.6°F-15.2°C 5% 2.7 mph SW4.3 kmh SW 6.6 mph10.6 kmh 29.99 in1015.6 mb 0.00 in0.0 mm 0.00 in/hr0.0 mm/hr 0.00 in0.0 mm
03:08 PM 81.5°F27.5°C 7.9°F-13.4°C 6% 5.4 mph WSW8.7 kmh WSW 8.0 mph12.9 kmh 29.99 in1015.6 mb 0.00 in0.0 mm 0.00 in/hr0.0 mm/hr 0.00 in0.0 mm
03:18 PM 82.6°F28.1°C 5.1°F-14.9°C 5% 1.2 mph SW1.9 kmh SW 5.8 mph9.3 kmh 29.99 in1015.6 mb 0.00 in0.0 mm 0.00 in/hr0.0 mm/hr 0.00 in0.0 mm
03:29 PM 81.5°F27.5°C 7.9°F-13.4°C 6% 4.7 mph W7.6 kmh W 8.4 mph13.5 kmh 29.99 in1015.6 mb 0.00 in0.0 mm 0.00 in/hr0.0 mm/hr 0.00 in0.0 mm
03:39 PM 81.2°F27.3°C 7.7°F-13.5°C 6% 3.1 mph WSW5.0 kmh WSW 43.8 mph70.5 kmh 29.99 in1015.6 mb 0.00 in0.0 mm 0.00 in/hr0.0 mm/hr 0.00 in0.0 mm
03:50 PM 81.8°F27.7°C 8.1°F-13.3°C 6% 7.6 mph W12.2 kmh W 46.4 mph74.7 kmh 29.99 in1015.6 mb 0.00 in0.0 mm 0.00 in/hr0.0 mm/hr 0.00 in0.0 mm
04:01 PM 81.2°F27.3°C 7.7°F-13.5°C 6% 6.1 mph W9.8 kmh W 62.6 mph100.7 kmh 29.99 in1015.6 mb 0.00 in0.0 mm 0.00 in/hr0.0 mm/hr 0.00 in0.0 mm
04:11 PM 80.7°F27.1°C 7.4°F-13.7°C 6% 3.9 mph WSW6.3 kmh WSW 56.8 mph91.4 kmh 29.98 in1015.2 mb 0.00 in0.0 mm 0.00 in/hr0.0 mm/hr 0.00 in0.0 mm
04:22 PM 80.6°F27.0°C 7.2°F-13.8°C 6% 3.3 mph NW5.3 kmh NW 53.6 mph86.3 kmh 29.99 in1015.6 mb 0.00 in0.0 mm 0.00 in/hr0.0 mm/hr 0.00 in0.0 mm
04:32 PM 80.5°F26.9°C 7.2°F-13.8°C 6% 5.9 mph WSW9.5 kmh WSW 15.6 mph25.1 kmh 29.99 in1015.6 mb 0.00 in0.0 mm 0.00 in/hr0.0 mm/hr 0.00 in0.0 mm
04:43 PM 80.1°F26.7°C 10.1°F-12.2°C 7% 3.0 mph WSW4.8 kmh WSW 57.6 mph92.7 kmh 29.99 in1015.6 mb 0.00 in0.0 mm 0.00 in/hr0.0 mm/hr 0.00 in0.0 mm
04:53 PM 80.2°F26.8°C 7.0°F-13.9°C 6% 3.0 mph W4.8 kmh W 6.2 mph10.0 kmh 29.99 in1015.6 mb 0.00 in0.0 mm 0.00 in/hr0.0 mm/hr 0.00 in0.0 mm